createdAt,value
2024-03-12T00:01:01.763Z,9.77
2024-03-12T00:03:28.848Z,5.35
2024-03-12T00:05:56.649Z,6.05
2024-03-12T00:08:23.051Z,5.82
2024-03-12T00:10:49.503Z,5.47
2024-03-12T00:13:16.230Z,5.10
2024-03-12T00:15:42.692Z,4.85
2024-03-12T00:18:09.218Z,5.00
2024-03-12T00:20:35.948Z,6.22
2024-03-12T00:23:03.197Z,6.38
2024-03-12T00:25:31.678Z,8.38
2024-03-12T00:27:58.242Z,6.90
2024-03-12T00:30:29.093Z,7.30
2024-03-12T00:32:57.984Z,6.43
2024-03-12T00:35:25.909Z,5.82
2024-03-12T00:37:52.950Z,7.40
2024-03-12T00:40:21.345Z,5.63
2024-03-12T00:42:48.354Z,7.43
2024-03-12T00:45:15.273Z,8.15
2024-03-12T00:47:42.743Z,6.80
2024-03-12T00:50:13.286Z,5.60
2024-03-12T00:52:41.244Z,7.25
2024-03-12T00:55:10.438Z,6.85
2024-03-12T00:57:39.490Z,9.30
2024-03-12T01:00:17.627Z,7.15
2024-03-12T01:02:49.753Z,6.82
2024-03-12T01:05:21.875Z,7.32
2024-03-12T01:07:53.619Z,6.78
2024-03-12T01:10:21.680Z,7.90
2024-03-12T01:12:49.989Z,8.68
2024-03-12T01:15:16.803Z,8.98
2024-03-12T01:17:43.436Z,6.85
2024-03-12T01:20:10.907Z,7.35
2024-03-12T01:22:39.001Z,7.82
2024-03-12T01:25:07.109Z,6.85
2024-03-12T01:27:40.121Z,7.15
2024-03-12T01:30:08.154Z,6.70
2024-03-12T01:32:35.678Z,7.72
2024-03-12T01:35:04.491Z,8.43
2024-03-12T01:37:30.934Z,8.60
2024-03-12T01:39:57.501Z,9.30
2024-03-12T01:42:24.228Z,11.10
2024-03-12T01:44:53.652Z,14.60
2024-03-12T01:47:21.317Z,15.50
2024-03-12T01:49:51.022Z,13.25
2024-03-12T01:52:18.848Z,12.35
2024-03-12T01:54:45.571Z,13.65
2024-03-12T01:57:12.533Z,12.40
2024-03-12T01:59:38.952Z,10.45
2024-03-12T02:02:05.440Z,11.18
2024-03-12T02:04:31.879Z,10.95
2024-03-12T02:06:59.044Z,12.75
2024-03-12T02:09:26.311Z,12.27
2024-03-12T02:11:52.750Z,11.70
2024-03-12T02:14:19.192Z,12.27
2024-03-12T02:16:45.614Z,10.45
2024-03-12T02:19:12.079Z,9.60
2024-03-12T02:21:38.545Z,10.68
2024-03-12T02:24:05.026Z,9.77
2024-03-12T02:26:32.494Z,9.85
2024-03-12T02:28:58.982Z,9.57
2024-03-12T02:31:25.376Z,9.57
2024-03-12T02:33:53.250Z,10.18
2024-03-12T02:36:21.352Z,11.23
2024-03-12T02:38:47.773Z,12.15
2024-03-12T02:41:14.179Z,11.07
2024-03-12T02:43:42.241Z,9.85
2024-03-12T02:46:12.091Z,9.48
2024-03-12T02:48:38.791Z,9.48
2024-03-12T02:51:08.343Z,9.45
2024-03-12T02:53:35.333Z,10.02
2024-03-12T02:56:02.192Z,10.77
2024-03-12T02:58:28.584Z,10.82
2024-03-12T03:00:55.173Z,10.00
2024-03-12T03:03:24.869Z,10.88
2024-03-12T03:05:51.327Z,11.13
2024-03-12T03:08:18.465Z,10.98
2024-03-12T03:10:45.783Z,9.95
2024-03-12T03:13:12.377Z,11.75
2024-03-12T03:15:39.691Z,10.05
2024-03-12T03:18:07.006Z,10.10
2024-03-12T03:20:33.415Z,10.82
2024-03-12T03:22:59.814Z,9.70
2024-03-12T03:25:26.207Z,10.05
2024-03-12T03:27:52.660Z,9.63
2024-03-12T03:30:20.035Z,11.63
2024-03-12T03:32:47.066Z,11.35
2024-03-12T03:35:14.697Z,10.63
2024-03-12T03:37:42.758Z,10.07
2024-03-12T03:40:12.098Z,11.05
2024-03-12T03:42:39.519Z,11.43
2024-03-12T03:45:06.561Z,11.73
2024-03-12T03:47:35.894Z,12.32
2024-03-12T03:50:09.643Z,13.85
2024-03-12T03:52:37.801Z,16.15
2024-03-12T03:55:05.115Z,16.63
2024-03-12T03:57:31.626Z,17.88
2024-03-12T03:59:58.132Z,17.17
2024-03-12T04:02:24.561Z,20.23
2024-03-12T04:04:51.109Z,19.35
2024-03-12T04:07:17.498Z,25.17
2024-03-12T04:09:43.915Z,23.92
2024-03-12T04:12:10.389Z,24.85
2024-03-12T04:14:36.761Z,23.42
2024-03-12T04:17:03.292Z,24.83
2024-03-12T04:19:33.240Z,24.38
2024-03-12T04:22:00.062Z,26.90
2024-03-12T04:24:26.983Z,25.17
2024-03-12T04:26:53.851Z,29.88
2024-03-12T04:29:20.357Z,29.00
2024-03-12T04:31:46.781Z,29.17
2024-03-12T04:34:13.306Z,33.08
2024-03-12T04:36:39.884Z,30.77
2024-03-12T04:39:32.031Z,36.65
2024-03-12T04:42:00.404Z,37.67
2024-03-12T04:44:26.821Z,40.92
2024-03-12T04:46:53.216Z,36.35
2024-03-12T04:49:19.815Z,41.85
2024-03-12T04:51:46.223Z,42.75
2024-03-12T04:54:12.721Z,49.25
2024-03-12T04:56:39.095Z,48.40
2024-03-12T04:59:05.595Z,47.25
2024-03-12T05:01:32.077Z,46.78
2024-03-12T05:04:04.355Z,47.22
2024-03-12T05:06:34.680Z,48.00
2024-03-12T05:09:01.180Z,46.83
2024-03-12T05:11:27.613Z,48.65
2024-03-12T05:13:54.211Z,50.47
2024-03-12T05:16:26.039Z,49.63
2024-03-12T05:18:52.989Z,52.58
2024-03-12T05:21:19.406Z,50.60
2024-03-12T05:23:45.795Z,50.28
2024-03-12T05:26:12.707Z,48.88
2024-03-12T05:28:39.837Z,52.95
2024-03-12T05:31:08.866Z,52.22
2024-03-12T05:33:39.584Z,57.95
2024-03-12T05:36:10.765Z,59.13
2024-03-12T05:38:45.774Z,59.42
2024-03-12T05:41:12.494Z,64.22
2024-03-12T05:43:57.453Z,63.08
2024-03-12T05:46:43.546Z,66.72
2024-03-12T05:49:10.088Z,61.30
2024-03-12T05:51:38.863Z,64.72
2024-03-12T05:54:08.628Z,66.68
2024-03-12T05:56:38.485Z,63.42
2024-03-12T05:59:05.814Z,63.05
2024-03-12T06:01:32.636Z,61.38
2024-03-12T06:03:59.661Z,61.33
2024-03-12T06:06:26.136Z,60.30
2024-03-12T06:08:52.529Z,58.35
2024-03-12T06:11:19.017Z,54.92
2024-03-12T06:13:45.483Z,54.15
2024-03-12T06:16:12.395Z,51.38
2024-03-12T06:18:39.142Z,52.35
2024-03-12T06:21:07.434Z,52.20
2024-03-12T06:23:33.922Z,51.85
2024-03-12T06:26:00.370Z,49.10
2024-03-12T06:28:28.916Z,46.97
2024-03-12T06:30:56.578Z,45.25
2024-03-12T06:33:23.133Z,44.88
2024-03-12T06:35:49.630Z,44.42
2024-03-12T06:38:16.801Z,44.40
2024-03-12T06:40:44.233Z,45.45
2024-03-12T06:43:14.402Z,44.92
2024-03-12T06:45:41.699Z,49.10
2024-03-12T06:48:08.427Z,45.53
2024-03-12T06:50:35.025Z,45.90
2024-03-12T06:53:01.496Z,44.42
2024-03-12T06:55:28.392Z,43.35
2024-03-12T06:58:00.830Z,41.10
2024-03-12T07:03:10.582Z,38.33
2024-03-12T07:05:38.473Z,40.63
2024-03-12T07:08:08.833Z,37.75
2024-03-12T07:10:38.045Z,37.58
2024-03-12T07:13:05.941Z,42.35
2024-03-12T07:15:35.389Z,40.55
2024-03-12T07:18:03.645Z,38.92
2024-03-12T07:20:30.859Z,42.63
2024-03-12T07:23:00.192Z,42.38
2024-03-12T07:25:26.912Z,42.40
2024-03-12T07:27:57.162Z,44.42
2024-03-12T07:30:25.716Z,46.55
2024-03-12T07:32:52.821Z,47.05
2024-03-12T07:35:19.314Z,45.35
2024-03-12T07:37:47.064Z,44.25
2024-03-12T07:40:16.712Z,46.13
2024-03-12T07:42:44.060Z,45.53
2024-03-12T07:45:11.778Z,45.58
2024-03-12T07:47:40.712Z,50.88
2024-03-12T07:50:12.654Z,45.60
2024-03-12T07:52:39.166Z,48.15
2024-03-12T07:55:07.059Z,47.92
2024-03-12T07:57:33.713Z,48.95
2024-03-12T08:00:00.683Z,48.88
2024-03-12T08:02:27.359Z,49.20
2024-03-12T08:04:53.773Z,50.92
2024-03-12T08:07:20.561Z,53.85
2024-03-12T08:09:50.351Z,52.63
2024-03-12T08:12:18.137Z,53.70
2024-03-12T08:14:45.288Z,50.85
2024-03-12T08:17:15.030Z,56.78
2024-03-12T08:19:43.755Z,54.03
2024-03-12T08:22:10.536Z,52.90
2024-03-12T08:24:40.774Z,52.92
2024-03-12T08:27:08.029Z,51.20
2024-03-12T08:29:34.565Z,57.22
2024-03-12T08:32:01.594Z,55.90
2024-03-12T08:34:28.273Z,55.35
2024-03-12T08:36:56.484Z,57.05
2024-03-12T08:39:23.243Z,59.15
2024-03-12T08:41:49.716Z,60.83
2024-03-12T08:44:16.203Z,55.67
2024-03-12T08:46:42.632Z,54.35
2024-03-12T08:49:12.048Z,54.78
2024-03-12T08:51:40.457Z,55.95
2024-03-12T08:54:07.717Z,53.28
2024-03-12T08:56:36.507Z,55.50
2024-03-12T08:59:04.613Z,53.67
2024-03-12T09:01:32.812Z,50.17
2024-03-12T09:03:59.317Z,50.50
2024-03-12T09:06:25.834Z,49.70
2024-03-12T09:08:52.293Z,46.50
2024-03-12T09:11:18.925Z,45.85
2024-03-12T09:13:46.574Z,44.80
2024-03-12T09:16:13.947Z,45.58
2024-03-12T09:18:43.304Z,43.55
2024-03-12T09:21:16.587Z,42.42
2024-03-12T09:23:53.444Z,37.67
2024-03-12T09:26:28.709Z,39.13
2024-03-12T09:28:55.153Z,35.83
2024-03-12T09:31:21.612Z,37.08
2024-03-12T09:33:48.115Z,37.47
2024-03-12T09:36:15.664Z,36.67
2024-03-12T09:38:44.902Z,36.55
2024-03-12T09:41:13.458Z,34.53
2024-03-12T09:43:40.596Z,29.35
2024-03-12T09:46:07.117Z,36.40
2024-03-12T09:48:34.190Z,30.42
2024-03-12T09:51:00.780Z,30.23
2024-03-12T09:53:27.562Z,29.95
2024-03-12T09:55:54.848Z,27.33
2024-03-12T09:58:21.332Z,29.27
2024-03-12T10:00:47.922Z,26.17
2024-03-12T10:03:17.658Z,25.17
2024-03-12T10:05:44.528Z,27.10
2024-03-12T10:08:15.640Z,25.65
2024-03-12T10:10:44.177Z,25.08
2024-03-12T10:13:17.662Z,24.42
2024-03-12T10:16:04.393Z,23.50
2024-03-12T10:18:32.089Z,25.83
2024-03-12T10:20:59.864Z,26.27
2024-03-12T10:23:28.171Z,25.38
2024-03-12T10:26:17.400Z,24.50
2024-03-12T10:28:51.543Z,25.23
2024-03-12T10:31:21.075Z,24.63
2024-03-12T10:33:50.440Z,18.85
2024-03-12T10:36:30.933Z,20.40
2024-03-12T10:38:57.403Z,20.70
2024-03-12T10:41:23.820Z,18.58
2024-03-12T10:43:51.209Z,21.35
2024-03-12T10:46:18.704Z,17.05
2024-03-12T10:48:47.254Z,19.48
2024-03-12T10:51:16.309Z,18.88
2024-03-12T10:53:44.496Z,15.57
2024-03-12T10:56:15.192Z,16.02
2024-03-12T10:58:47.787Z,14.97
2024-03-12T11:01:16.121Z,12.98
2024-03-12T11:03:43.971Z,16.75
2024-03-12T11:06:10.566Z,15.18
2024-03-12T11:08:39.775Z,17.05
2024-03-12T11:11:09.846Z,16.38
2024-03-12T11:13:36.469Z,17.35
2024-03-12T11:16:14.608Z,15.85
2024-03-12T11:18:41.580Z,17.75
2024-03-12T11:21:12.503Z,15.18
2024-03-12T11:23:41.347Z,16.70
2024-03-12T11:26:07.917Z,17.75
2024-03-12T11:28:48.288Z,16.50
2024-03-12T11:31:14.756Z,15.38
2024-03-12T11:33:43.186Z,14.45
2024-03-12T11:36:10.361Z,15.40
2024-03-12T11:38:37.342Z,15.20
2024-03-12T11:41:04.626Z,17.52
2024-03-12T11:43:42.110Z,17.48
2024-03-12T11:46:10.155Z,16.63
2024-03-12T11:48:40.035Z,20.73
2024-03-12T11:51:10.144Z,19.25
2024-03-12T11:53:37.676Z,20.65
2024-03-12T11:56:08.962Z,16.45
2024-03-12T12:01:11.564Z,20.37
2024-03-12T12:03:38.438Z,19.67
2024-03-12T12:06:05.075Z,18.98
2024-03-12T12:08:34.059Z,18.45
2024-03-12T12:11:02.441Z,18.88
2024-03-12T12:13:30.565Z,20.63
2024-03-12T12:15:58.230Z,22.85
2024-03-12T12:18:26.910Z,23.48
2024-03-12T12:20:54.489Z,23.88
2024-03-12T12:23:21.940Z,26.30
2024-03-12T12:25:50.918Z,22.88
2024-03-12T12:28:19.334Z,23.63
2024-03-12T12:30:45.930Z,22.77
2024-03-12T12:33:14.307Z,24.73
2024-03-12T12:35:42.795Z,22.83
2024-03-12T12:38:10.864Z,23.42
2024-03-12T12:40:40.933Z,23.73
2024-03-12T12:43:07.451Z,24.27
2024-03-12T12:45:34.880Z,26.05
2024-03-12T12:48:02.562Z,23.30
2024-03-12T12:50:31.066Z,25.05
2024-03-12T12:53:02.429Z,27.08
2024-03-12T12:55:31.040Z,25.92
2024-03-12T12:58:01.890Z,25.08
2024-03-12T13:00:28.831Z,25.95
2024-03-12T13:03:15.997Z,23.83
2024-03-12T13:05:42.666Z,26.65
2024-03-12T13:08:30.481Z,25.77
2024-03-12T13:10:59.555Z,23.80
2024-03-12T13:13:26.914Z,22.95
2024-03-12T13:15:53.435Z,25.83
2024-03-12T13:18:22.958Z,27.08
2024-03-12T13:20:50.377Z,25.98
2024-03-12T13:23:17.529Z,25.83
2024-03-12T13:25:46.337Z,26.17
2024-03-12T13:28:15.949Z,23.85
2024-03-12T13:30:43.250Z,25.38
2024-03-12T13:33:10.022Z,24.00
2024-03-12T13:35:36.455Z,25.50
2024-03-12T13:38:02.937Z,22.73
2024-03-12T13:40:30.563Z,21.45
2024-03-12T13:42:57.446Z,19.25
2024-03-12T13:45:24.042Z,19.70
2024-03-12T13:47:50.509Z,14.88
2024-03-12T13:50:16.946Z,14.48
2024-03-12T13:52:43.670Z,15.38
2024-03-12T13:55:12.380Z,17.27
2024-03-12T13:57:39.855Z,13.63
2024-03-12T14:00:11.081Z,16.08
2024-03-12T14:02:37.719Z,17.42
2024-03-12T14:05:06.029Z,19.25
2024-03-12T14:07:33.350Z,21.48
2024-03-12T14:10:00.379Z,23.67
2024-03-12T14:12:26.954Z,20.45
2024-03-12T14:14:53.803Z,18.92
2024-03-12T14:17:21.371Z,19.80
2024-03-12T14:19:47.851Z,19.27
2024-03-12T14:22:14.326Z,19.70
2024-03-12T14:24:40.821Z,21.38
2024-03-12T14:27:07.277Z,24.30
2024-03-12T14:29:33.761Z,21.88
2024-03-12T14:32:01.419Z,25.52
2024-03-12T14:34:29.593Z,30.58
2024-03-12T14:36:56.275Z,24.73
2024-03-12T14:39:24.211Z,24.77
2024-03-12T14:41:51.874Z,26.85
2024-03-12T14:44:18.353Z,28.20
2024-03-12T14:46:46.540Z,33.22
2024-03-12T14:49:16.349Z,29.27
2024-03-12T14:51:42.874Z,22.63
2024-03-12T14:54:09.447Z,28.38
2024-03-12T14:56:35.859Z,23.65
2024-03-12T14:59:04.756Z,30.35
2024-03-12T15:01:31.262Z,30.42
2024-03-12T15:03:58.307Z,28.40
2024-03-12T15:06:24.756Z,24.92
2024-03-12T15:08:51.182Z,26.83
2024-03-12T15:11:17.714Z,22.60
2024-03-12T15:13:44.429Z,21.83
2024-03-12T15:16:10.893Z,20.85
2024-03-12T15:18:38.120Z,23.33
2024-03-12T15:21:06.211Z,20.05
2024-03-12T15:23:32.653Z,22.20
2024-03-12T15:25:59.094Z,22.00
2024-03-12T15:28:25.719Z,22.45
2024-03-12T15:30:52.549Z,21.75
2024-03-12T15:33:19.441Z,23.73
2024-03-12T15:35:46.594Z,21.67
2024-03-12T15:38:13.117Z,21.50
2024-03-12T15:40:40.074Z,23.27
2024-03-12T15:43:06.910Z,24.45
2024-03-12T15:45:33.653Z,24.42
2024-03-12T15:48:01.609Z,25.98
2024-03-12T15:50:28.396Z,30.75
2024-03-12T15:52:55.124Z,25.25
2024-03-12T15:55:22.974Z,25.70
2024-03-12T15:57:49.574Z,25.05
2024-03-12T16:00:16.290Z,27.30
2024-03-12T16:02:43.320Z,23.55
2024-03-12T16:05:09.819Z,28.15
2024-03-12T16:07:36.721Z,28.45
2024-03-12T16:10:05.267Z,29.70
2024-03-12T16:12:32.082Z,27.55
2024-03-12T16:14:58.549Z,31.45
2024-03-12T16:17:25.385Z,32.83
2024-03-12T16:19:51.807Z,32.45
2024-03-12T16:22:18.350Z,30.20
2024-03-12T16:24:44.928Z,29.65
2024-03-12T16:27:11.917Z,30.13
2024-03-12T16:29:38.474Z,32.83
2024-03-12T16:32:08.608Z,31.40
2024-03-12T16:34:35.082Z,32.22
2024-03-12T16:37:02.872Z,35.50
2024-03-12T16:39:29.893Z,36.85
2024-03-12T16:41:59.336Z,36.58
2024-03-12T16:44:25.756Z,33.63
2024-03-12T16:46:55.372Z,34.72
2024-03-12T16:49:22.810Z,38.15
2024-03-12T16:51:49.709Z,37.58
2024-03-12T16:54:17.147Z,38.75
2024-03-12T16:56:45.578Z,36.15
2024-03-12T16:59:12.485Z,30.67
2024-03-12T17:01:39.306Z,35.95
2024-03-12T17:04:06.134Z,35.75
2024-03-12T17:06:33.773Z,35.33
2024-03-12T17:09:02.313Z,36.58
2024-03-12T17:11:29.080Z,37.97
2024-03-12T17:13:57.071Z,33.40
2024-03-12T17:16:27.048Z,34.88
2024-03-12T17:18:56.860Z,38.67
2024-03-12T17:21:28.673Z,36.83
2024-03-12T17:23:55.474Z,44.00
2024-03-12T17:26:22.485Z,42.10
2024-03-12T17:28:50.464Z,39.67
2024-03-12T17:31:17.973Z,38.55
2024-03-12T17:33:44.972Z,38.95
2024-03-12T17:36:18.492Z,39.10
2024-03-12T17:38:49.918Z,37.53
2024-03-12T17:41:17.357Z,40.30
2024-03-12T17:43:43.941Z,40.97
2024-03-12T17:46:13.852Z,37.00
2024-03-12T17:48:44.602Z,40.33
2024-03-12T17:51:12.005Z,36.75
2024-03-12T17:53:39.036Z,42.00
2024-03-12T17:56:13.956Z,44.92
2024-03-12T17:58:40.630Z,38.72
2024-03-12T18:01:07.485Z,42.17
2024-03-12T18:03:34.198Z,41.58
2024-03-12T18:06:04.460Z,46.25
2024-03-12T18:08:36.589Z,42.42
2024-03-12T18:11:04.496Z,46.10
2024-03-12T18:13:31.162Z,43.08
2024-03-12T18:15:57.721Z,43.63
2024-03-12T18:18:24.490Z,41.15
2024-03-12T18:20:51.945Z,41.97
2024-03-12T18:23:18.380Z,39.53
2024-03-12T18:25:44.762Z,40.50
2024-03-12T18:28:11.411Z,45.00
2024-03-12T18:30:38.075Z,41.40
2024-03-12T18:33:05.084Z,40.30
2024-03-12T18:35:31.538Z,42.20
2024-03-12T18:37:57.965Z,41.00
2024-03-12T18:40:24.503Z,47.92
2024-03-12T18:42:51.840Z,42.45
2024-03-12T18:45:23.670Z,41.03
2024-03-12T18:47:56.117Z,41.17
2024-03-12T18:52:52.376Z,41.25
2024-03-12T18:55:19.345Z,38.13
2024-03-12T18:57:46.803Z,40.67
2024-03-12T19:00:20.727Z,44.33
2024-03-12T19:02:48.477Z,41.13
2024-03-12T19:05:17.993Z,39.63
2024-03-12T19:07:49.923Z,41.83
2024-03-12T19:10:16.928Z,40.47
2024-03-12T19:12:43.671Z,39.50
2024-03-12T19:15:11.917Z,39.47
2024-03-12T19:17:41.242Z,44.55
2024-03-12T19:20:15.643Z,39.80
2024-03-12T19:22:43.755Z,40.95
2024-03-12T19:25:12.099Z,39.45
2024-03-12T19:27:39.292Z,43.42
2024-03-12T19:30:06.806Z,43.47
2024-03-12T19:32:34.592Z,40.08
2024-03-12T19:35:02.785Z,42.65
2024-03-12T19:37:33.616Z,41.30
2024-03-12T19:40:00.695Z,43.40
2024-03-12T19:42:27.222Z,45.00
2024-03-12T19:44:54.119Z,45.70
2024-03-12T19:47:21.714Z,43.85
2024-03-12T19:49:48.208Z,42.53
2024-03-12T19:52:14.920Z,46.10
2024-03-12T19:54:42.041Z,44.15
2024-03-12T19:57:09.386Z,43.67
2024-03-12T19:59:35.792Z,47.42
2024-03-12T20:02:05.668Z,46.33
2024-03-12T20:04:32.098Z,43.47
2024-03-12T20:06:58.535Z,48.15
2024-03-12T20:09:24.962Z,46.08
2024-03-12T20:11:51.523Z,46.75
2024-03-12T20:14:19.782Z,49.35
2024-03-12T20:16:46.523Z,41.92
2024-03-12T20:19:17.302Z,43.65
2024-03-12T20:21:45.996Z,43.63
2024-03-12T20:24:13.721Z,40.95
2024-03-12T20:26:41.059Z,43.28
2024-03-12T20:29:08.904Z,45.55
2024-03-12T20:31:36.226Z,47.20
2024-03-12T20:34:04.441Z,47.45
2024-03-12T20:36:31.535Z,46.10
2024-03-12T20:39:00.786Z,45.40
2024-03-12T20:41:27.301Z,49.47
2024-03-12T20:43:53.932Z,49.10
2024-03-12T20:46:22.017Z,45.78
2024-03-12T20:48:48.587Z,45.25
2024-03-12T20:51:15.416Z,50.00
2024-03-12T20:53:42.921Z,49.47
2024-03-12T20:56:09.668Z,47.90
2024-03-12T20:58:36.178Z,53.47
2024-03-12T21:01:02.727Z,47.97
2024-03-12T21:03:32.139Z,56.85
2024-03-12T21:05:58.538Z,51.83
2024-03-12T21:08:24.927Z,50.85
2024-03-12T21:10:51.327Z,51.05
2024-03-12T21:13:18.405Z,50.67
2024-03-12T21:15:45.468Z,51.85
2024-03-12T21:18:12.915Z,55.72
2024-03-12T21:20:39.373Z,52.75
2024-03-12T21:23:08.994Z,50.05
2024-03-12T21:25:35.515Z,50.53
2024-03-12T21:28:02.110Z,50.33
2024-03-12T21:30:28.949Z,54.63
2024-03-12T21:32:56.510Z,49.92
2024-03-12T21:35:24.776Z,47.90
2024-03-12T21:37:52.617Z,54.03
2024-03-12T21:40:20.396Z,51.47
2024-03-12T21:42:47.510Z,50.67
2024-03-12T21:45:16.399Z,54.08
2024-03-12T21:47:45.013Z,50.92
2024-03-12T21:50:16.624Z,54.58
2024-03-12T21:52:43.462Z,53.88
2024-03-12T21:55:11.373Z,51.00
2024-03-12T21:57:39.511Z,50.38
2024-03-12T22:00:11.735Z,56.10
2024-03-12T22:02:39.216Z,55.53
2024-03-12T22:05:08.378Z,49.72
2024-03-12T22:07:38.133Z,56.20
2024-03-12T22:10:06.096Z,51.90
2024-03-12T22:12:32.618Z,52.83
2024-03-12T22:14:59.053Z,50.33
2024-03-12T22:17:25.568Z,51.17
2024-03-12T22:19:52.031Z,52.20
2024-03-12T22:22:18.532Z,53.60
2024-03-12T22:24:45.080Z,51.42
2024-03-12T22:27:11.553Z,55.05
2024-03-12T22:29:39.750Z,50.95
2024-03-12T22:32:08.219Z,50.78
2024-03-12T22:34:34.871Z,50.80
2024-03-12T22:37:02.270Z,49.83
2024-03-12T22:39:28.850Z,52.30
2024-03-12T22:41:56.514Z,49.80
2024-03-12T22:44:22.988Z,52.90
2024-03-12T22:46:49.675Z,52.20
2024-03-12T22:49:17.090Z,50.72
2024-03-12T22:51:44.112Z,51.05
2024-03-12T22:54:11.290Z,51.28
2024-03-12T22:56:37.854Z,50.28
2024-03-12T22:59:05.108Z,51.88
2024-03-12T23:01:32.127Z,51.47
2024-03-12T23:03:58.817Z,52.10
2024-03-12T23:06:26.192Z,43.22
2024-03-12T23:08:53.323Z,46.70
2024-03-12T23:11:22.317Z,49.13
2024-03-12T23:13:48.813Z,44.97
2024-03-12T23:16:16.149Z,45.90
2024-03-12T23:18:43.108Z,45.70
2024-03-12T23:21:11.360Z,48.63
2024-03-12T23:23:38.811Z,44.58
2024-03-12T23:26:05.653Z,50.08
2024-03-12T23:28:32.087Z,52.20
2024-03-12T23:30:58.931Z,48.25
2024-03-12T23:33:26.193Z,49.78
2024-03-12T23:35:52.811Z,54.17
2024-03-12T23:38:19.942Z,54.75
2024-03-12T23:40:46.358Z,53.40
2024-03-12T23:43:12.811Z,50.30
2024-03-12T23:45:39.458Z,49.00
2024-03-12T23:48:06.981Z,57.50
2024-03-12T23:50:34.674Z,53.85
2024-03-12T23:53:03.236Z,51.67
2024-03-12T23:55:29.847Z,51.22
2024-03-12T23:57:56.468Z,49.65
